sensor_id;sensor_type;location;lat;lon;timestamp;temperature;humidity
4985;DHT22;2509;49.902;8.600;2022-08-21T00:02:50;19.70;99.90
4985;DHT22;2509;49.902;8.600;2022-08-21T00:05:53;19.80;99.90
4985;DHT22;2509;49.902;8.600;2022-08-21T00:08:54;19.70;99.90
4985;DHT22;2509;49.902;8.600;2022-08-21T00:11:56;19.70;99.90
4985;DHT22;2509;49.902;8.600;2022-08-21T00:14:59;19.70;99.90
4985;DHT22;2509;49.902;8.600;2022-08-21T00:18:02;19.70;99.90
4985;DHT22;2509;49.902;8.600;2022-08-21T00:21:04;19.60;99.90
4985;DHT22;2509;49.902;8.600;2022-08-21T00:24:06;19.70;99.90
4985;DHT22;2509;49.902;8.600;2022-08-21T00:27:08;19.70;99.90
4985;DHT22;2509;49.902;8.600;2022-08-21T00:30:12;19.50;99.90
4985;DHT22;2509;49.902;8.600;2022-08-21T00:33:14;19.60;99.90
4985;DHT22;2509;49.902;8.600;2022-08-21T00:36:16;19.60;99.90
4985;DHT22;2509;49.902;8.600;2022-08-21T00:39:18;19.60;99.90
4985;DHT22;2509;49.902;8.600;2022-08-21T00:42:20;19.60;99.90
4985;DHT22;2509;49.902;8.600;2022-08-21T00:45:24;19.60;99.90
4985;DHT22;2509;49.902;8.600;2022-08-21T00:48:28;19.60;99.90
4985;DHT22;2509;49.902;8.600;2022-08-21T00:51:35;19.50;99.90
4985;DHT22;2509;49.902;8.600;2022-08-21T00:54:39;19.40;99.90
4985;DHT22;2509;49.902;8.600;2022-08-21T00:57:45;19.40;99.90
4985;DHT22;2509;49.902;8.600;2022-08-21T01:00:50;19.40;99.90
4985;DHT22;2509;49.902;8.600;2022-08-21T01:03:52;19.40;99.90
4985;DHT22;2509;49.902;8.600;2022-08-21T01:06:54;19.40;99.90
4985;DHT22;2509;49.902;8.600;2022-08-21T01:09:56;19.30;99.90
4985;DHT22;2509;49.902;8.600;2022-08-21T01:12:58;19.30;99.90
4985;DHT22;2509;49.902;8.600;2022-08-21T01:16:04;19.30;99.90
4985;DHT22;2509;49.902;8.600;2022-08-21T01:19:07;19.30;99.90
4985;DHT22;2509;49.902;8.600;2022-08-21T01:22:11;19.20;99.90
4985;DHT22;2509;49.902;8.600;2022-08-21T01:25:15;19.20;99.90
4985;DHT22;2509;49.902;8.600;2022-08-21T01:28:17;19.10;99.90
4985;DHT22;2509;49.902;8.600;2022-08-21T01:31:22;19.10;99.90
4985;DHT22;2509;49.902;8.600;2022-08-21T01:34:24;19.10;99.90
4985;DHT22;2509;49.902;8.600;2022-08-21T01:37:27;19.00;99.90
4985;DHT22;2509;49.902;8.600;2022-08-21T01:40:29;19.00;99.90
4985;DHT22;2509;49.902;8.600;2022-08-21T01:43:31;19.00;99.90
4985;DHT22;2509;49.902;8.600;2022-08-21T01:46:33;18.90;99.90
4985;DHT22;2509;49.902;8.600;2022-08-21T01:49:35;18.90;99.90
4985;DHT22;2509;49.902;8.600;2022-08-21T01:52:39;18.90;99.90
4985;DHT22;2509;49.902;8.600;2022-08-21T01:55:41;18.80;99.90
4985;DHT22;2509;49.902;8.600;2022-08-21T01:58:45;18.70;99.90
4985;DHT22;2509;49.902;8.600;2022-08-21T02:01:47;18.70;99.90
4985;DHT22;2509;49.902;8.600;2022-08-21T02:04:49;18.70;99.90
4985;DHT22;2509;49.902;8.600;2022-08-21T02:07:54;18.70;99.90
4985;DHT22;2509;49.902;8.600;2022-08-21T02:10:56;18.60;99.90
4985;DHT22;2509;49.902;8.600;2022-08-21T02:13:57;18.60;99.90
4985;DHT22;2509;49.902;8.600;2022-08-21T02:17:00;18.70;99.90
4985;DHT22;2509;49.902;8.600;2022-08-21T02:20:03;18.70;99.90
4985;DHT22;2509;49.902;8.600;2022-08-21T02:23:09;18.60;99.90
4985;DHT22;2509;49.902;8.600;2022-08-21T02:26:12;18.50;99.90
4985;DHT22;2509;49.902;8.600;2022-08-21T02:29:14;18.50;99.90
4985;DHT22;2509;49.902;8.600;2022-08-21T02:32:16;18.50;99.90
4985;DHT22;2509;49.902;8.600;2022-08-21T02:35:18;18.50;99.90
4985;DHT22;2509;49.902;8.600;2022-08-21T02:38:25;18.50;99.90
4985;DHT22;2509;49.902;8.600;2022-08-21T02:41:27;18.40;99.90
4985;DHT22;2509;49.902;8.600;2022-08-21T02:44:28;18.40;99.90
4985;DHT22;2509;49.902;8.600;2022-08-21T02:47:30;18.30;99.90
4985;DHT22;2509;49.902;8.600;2022-08-21T02:50:34;18.30;99.90
4985;DHT22;2509;49.902;8.600;2022-08-21T02:53:37;18.30;99.90
4985;DHT22;2509;49.902;8.600;2022-08-21T02:56:39;18.20;99.90
4985;DHT22;2509;49.902;8.600;2022-08-21T02:59:41;18.20;99.90
4985;DHT22;2509;49.902;8.600;2022-08-21T03:02:43;18.10;99.90
4985;DHT22;2509;49.902;8.600;2022-08-21T03:05:46;18.20;99.90
4985;DHT22;2509;49.902;8.600;2022-08-21T03:08:49;18.20;99.90
4985;DHT22;2509;49.902;8.600;2022-08-21T03:11:51;18.20;99.90
4985;DHT22;2509;49.902;8.600;2022-08-21T03:14:54;18.20;99.90
4985;DHT22;2509;49.902;8.600;2022-08-21T03:17:56;18.20;99.90
4985;DHT22;2509;49.902;8.600;2022-08-21T03:20:57;18.20;99.90
4985;DHT22;2509;49.902;8.600;2022-08-21T03:24:01;18.10;99.90
4985;DHT22;2509;49.902;8.600;2022-08-21T03:27:03;18.10;99.90
4985;DHT22;2509;49.902;8.600;2022-08-21T03:30:06;18.10;99.90
4985;DHT22;2509;49.902;8.600;2022-08-21T03:33:08;18.00;99.90
4985;DHT22;2509;49.902;8.600;2022-08-21T03:36:10;18.00;99.90
4985;DHT22;2509;49.902;8.600;2022-08-21T03:39:13;17.90;99.90
4985;DHT22;2509;49.902;8.600;2022-08-21T03:42:15;17.80;99.90
4985;DHT22;2509;49.902;8.600;2022-08-21T03:45:19;17.80;99.90
4985;DHT22;2509;49.902;8.600;2022-08-21T03:48:21;17.80;99.90
4985;DHT22;2509;49.902;8.600;2022-08-21T03:51:23;17.80;99.90
4985;DHT22;2509;49.902;8.600;2022-08-21T03:54:26;17.70;99.90
4985;DHT22;2509;49.902;8.600;2022-08-21T03:57:28;17.70;99.90
4985;DHT22;2509;49.902;8.600;2022-08-21T04:00:30;17.70;99.90
4985;DHT22;2509;49.902;8.600;2022-08-21T04:03:34;17.70;99.90
4985;DHT22;2509;49.902;8.600;2022-08-21T04:06:36;17.70;99.90
4985;DHT22;2509;49.902;8.600;2022-08-21T04:09:39;17.50;99.90
4985;DHT22;2509;49.902;8.600;2022-08-21T04:12:41;17.40;99.90
4985;DHT22;2509;49.902;8.600;2022-08-21T04:15:43;17.40;99.90
4985;DHT22;2509;49.902;8.600;2022-08-21T04:18:45;17.40;99.90
4985;DHT22;2509;49.902;8.600;2022-08-21T04:21:46;17.40;99.90
4985;DHT22;2509;49.902;8.600;2022-08-21T04:24:51;17.30;99.90
4985;DHT22;2509;49.902;8.600;2022-08-21T04:27:53;17.30;99.90
4985;DHT22;2509;49.902;8.600;2022-08-21T04:30:55;17.30;99.90
4985;DHT22;2509;49.902;8.600;2022-08-21T04:33:57;17.30;99.90
4985;DHT22;2509;49.902;8.600;2022-08-21T04:36:59;17.30;99.90
4985;DHT22;2509;49.902;8.600;2022-08-21T04:40:03;17.30;99.90
4985;DHT22;2509;49.902;8.600;2022-08-21T04:43:07;17.30;99.90
4985;DHT22;2509;49.902;8.600;2022-08-21T04:46:09;17.30;99.90
4985;DHT22;2509;49.902;8.600;2022-08-21T04:49:11;17.40;99.90
4985;DHT22;2509;49.902;8.600;2022-08-21T04:52:15;17.40;99.90
4985;DHT22;2509;49.902;8.600;2022-08-21T04:55:20;17.50;99.90
4985;DHT22;2509;49.902;8.600;2022-08-21T04:58:24;17.60;99.90
4985;DHT22;2509;49.902;8.600;2022-08-21T05:01:28;17.60;99.90
4985;DHT22;2509;49.902;8.600;2022-08-21T05:04:33;17.60;99.90
4985;DHT22;2509;49.902;8.600;2022-08-21T05:07:36;17.70;99.90
4985;DHT22;2509;49.902;8.600;2022-08-21T05:10:39;17.70;99.90
4985;DHT22;2509;49.902;8.600;2022-08-21T05:13:42;17.70;99.90
4985;DHT22;2509;49.902;8.600;2022-08-21T05:16:44;17.80;99.90
4985;DHT22;2509;49.902;8.600;2022-08-21T05:19:46;17.80;99.90
4985;DHT22;2509;49.902;8.600;2022-08-21T05:22:48;17.80;99.90
4985;DHT22;2509;49.902;8.600;2022-08-21T05:25:52;17.80;99.90
4985;DHT22;2509;49.902;8.600;2022-08-21T05:28:53;17.90;99.90
4985;DHT22;2509;49.902;8.600;2022-08-21T05:31:55;17.90;99.90
4985;DHT22;2509;49.902;8.600;2022-08-21T05:34:57;17.90;99.90
4985;DHT22;2509;49.902;8.600;2022-08-21T05:37:59;18.00;99.90
4985;DHT22;2509;49.902;8.600;2022-08-21T05:41:03;18.00;99.90
4985;DHT22;2509;49.902;8.600;2022-08-21T05:44:05;18.00;99.90
4985;DHT22;2509;49.902;8.600;2022-08-21T05:47:09;18.10;99.90
4985;DHT22;2509;49.902;8.600;2022-08-21T05:50:11;18.20;99.90
4985;DHT22;2509;49.902;8.600;2022-08-21T05:53:14;18.20;99.90
4985;DHT22;2509;49.902;8.600;2022-08-21T05:56:18;18.20;99.90
4985;DHT22;2509;49.902;8.600;2022-08-21T05:59:20;18.30;99.90
4985;DHT22;2509;49.902;8.600;2022-08-21T06:02:21;18.40;99.90
4985;DHT22;2509;49.902;8.600;2022-08-21T06:05:23;18.50;99.90
4985;DHT22;2509;49.902;8.600;2022-08-21T06:08:26;18.60;99.90
4985;DHT22;2509;49.902;8.600;2022-08-21T06:11:29;18.70;99.90
4985;DHT22;2509;49.902;8.600;2022-08-21T06:14:31;18.70;99.90
4985;DHT22;2509;49.902;8.600;2022-08-21T06:17:33;18.80;99.90
4985;DHT22;2509;49.902;8.600;2022-08-21T06:20:35;18.90;99.90
4985;DHT22;2509;49.902;8.600;2022-08-21T06:23:37;19.00;99.90
4985;DHT22;2509;49.902;8.600;2022-08-21T06:26:40;19.10;99.90
4985;DHT22;2509;49.902;8.600;2022-08-21T06:29:42;19.30;99.90
4985;DHT22;2509;49.902;8.600;2022-08-21T06:32:45;19.30;99.90
4985;DHT22;2509;49.902;8.600;2022-08-21T06:35:47;19.50;99.90
4985;DHT22;2509;49.902;8.600;2022-08-21T06:38:48;19.60;99.90
4985;DHT22;2509;49.902;8.600;2022-08-21T06:41:52;19.70;99.90
4985;DHT22;2509;49.902;8.600;2022-08-21T06:44:53;19.80;99.90
4985;DHT22;2509;49.902;8.600;2022-08-21T06:47:55;19.90;99.90
4985;DHT22;2509;49.902;8.600;2022-08-21T06:50:58;20.00;99.90
4985;DHT22;2509;49.902;8.600;2022-08-21T06:54:00;20.10;99.90
4985;DHT22;2509;49.902;8.600;2022-08-21T06:57:03;20.20;99.90
4985;DHT22;2509;49.902;8.600;2022-08-21T07:00:06;20.30;99.90
4985;DHT22;2509;49.902;8.600;2022-08-21T07:03:17;20.50;99.90
4985;DHT22;2509;49.902;8.600;2022-08-21T07:06:19;20.60;99.90
4985;DHT22;2509;49.902;8.600;2022-08-21T07:09:21;20.70;99.90
4985;DHT22;2509;49.902;8.600;2022-08-21T07:12:24;20.70;99.90
4985;DHT22;2509;49.902;8.600;2022-08-21T07:15:26;20.80;99.90
4985;DHT22;2509;49.902;8.600;2022-08-21T07:18:28;21.00;99.90
4985;DHT22;2509;49.902;8.600;2022-08-21T07:21:30;21.10;99.90
4985;DHT22;2509;49.902;8.600;2022-08-21T07:24:32;21.20;99.90
4985;DHT22;2509;49.902;8.600;2022-08-21T07:27:36;21.30;99.90
4985;DHT22;2509;49.902;8.600;2022-08-21T07:30:38;21.40;99.90
4985;DHT22;2509;49.902;8.600;2022-08-21T07:33:40;21.40;99.90
4985;DHT22;2509;49.902;8.600;2022-08-21T07:36:42;21.60;99.90
4985;DHT22;2509;49.902;8.600;2022-08-21T07:39:44;21.80;99.90
4985;DHT22;2509;49.902;8.600;2022-08-21T07:42:50;21.90;99.90
4985;DHT22;2509;49.902;8.600;2022-08-21T07:45:52;21.90;99.90
4985;DHT22;2509;49.902;8.600;2022-08-21T07:48:54;22.00;99.90
4985;DHT22;2509;49.902;8.600;2022-08-21T07:51:56;22.10;99.90
4985;DHT22;2509;49.902;8.600;2022-08-21T07:54:58;22.30;99.90
4985;DHT22;2509;49.902;8.600;2022-08-21T07:58:02;22.60;99.90
4985;DHT22;2509;49.902;8.600;2022-08-21T08:01:05;22.80;99.90
4985;DHT22;2509;49.902;8.600;2022-08-21T08:04:07;22.90;99.90
4985;DHT22;2509;49.902;8.600;2022-08-21T08:07:09;23.10;99.70
4985;DHT22;2509;49.902;8.600;2022-08-21T08:10:11;23.10;99.60
4985;DHT22;2509;49.902;8.600;2022-08-21T08:13:14;23.40;98.60
4985;DHT22;2509;49.902;8.600;2022-08-21T08:16:17;23.60;99.10
4985;DHT22;2509;49.902;8.600;2022-08-21T08:19:19;23.70;98.50
4985;DHT22;2509;49.902;8.600;2022-08-21T08:22:22;23.80;98.70
4985;DHT22;2509;49.902;8.600;2022-08-21T08:25:25;24.00;99.70
4985;DHT22;2509;49.902;8.600;2022-08-21T08:28:29;24.00;98.20
4985;DHT22;2509;49.902;8.600;2022-08-21T08:31:33;24.00;98.90
4985;DHT22;2509;49.902;8.600;2022-08-21T08:34:35;24.10;98.90
4985;DHT22;2509;49.902;8.600;2022-08-21T08:37:38;24.30;98.70
4985;DHT22;2509;49.902;8.600;2022-08-21T08:40:45;24.40;98.80
4985;DHT22;2509;49.902;8.600;2022-08-21T08:43:52;24.40;98.90
4985;DHT22;2509;49.902;8.600;2022-08-21T08:46:55;24.50;96.80
4985;DHT22;2509;49.902;8.600;2022-08-21T08:50:01;24.60;96.80
4985;DHT22;2509;49.902;8.600;2022-08-21T08:53:07;24.80;97.40
4985;DHT22;2509;49.902;8.600;2022-08-21T08:56:10;25.00;95.70
4985;DHT22;2509;49.902;8.600;2022-08-21T08:59:17;25.20;95.60
4985;DHT22;2509;49.902;8.600;2022-08-21T09:02:21;25.50;94.30
4985;DHT22;2509;49.902;8.600;2022-08-21T09:05:26;25.80;94.90
4985;DHT22;2509;49.902;8.600;2022-08-21T09:08:43;25.70;94.90
4985;DHT22;2509;49.902;8.600;2022-08-21T09:11:56;25.80;94.30
4985;DHT22;2509;49.902;8.600;2022-08-21T09:15:06;26.10;93.00
4985;DHT22;2509;49.902;8.600;2022-08-21T09:18:25;26.40;93.30
4985;DHT22;2509;49.902;8.600;2022-08-21T09:21:35;26.70;90.80
4985;DHT22;2509;49.902;8.600;2022-08-21T09:24:46;26.80;90.30
4985;DHT22;2509;49.902;8.600;2022-08-21T09:27:52;26.80;88.90
4985;DHT22;2509;49.902;8.600;2022-08-21T09:30:55;26.80;88.80
4985;DHT22;2509;49.902;8.600;2022-08-21T09:34:05;26.90;89.00
4985;DHT22;2509;49.902;8.600;2022-08-21T09:37:16;27.00;87.50
4985;DHT22;2509;49.902;8.600;2022-08-21T09:40:29;27.30;86.00
4985;DHT22;2509;49.902;8.600;2022-08-21T09:43:32;27.30;85.40
4985;DHT22;2509;49.902;8.600;2022-08-21T09:46:35;27.40;86.30
4985;DHT22;2509;49.902;8.600;2022-08-21T09:49:40;27.20;86.20
4985;DHT22;2509;49.902;8.600;2022-08-21T09:52:44;27.10;87.60
4985;DHT22;2509;49.902;8.600;2022-08-21T09:55:50;27.30;84.50
4985;DHT22;2509;49.902;8.600;2022-08-21T09:59:16;27.50;84.00
4985;DHT22;2509;49.902;8.600;2022-08-21T10:02:31;27.50;84.10
4985;DHT22;2509;49.902;8.600;2022-08-21T10:05:33;27.60;83.70
4985;DHT22;2509;49.902;8.600;2022-08-21T10:08:38;27.70;83.60
4985;DHT22;2509;49.902;8.600;2022-08-21T10:11:40;27.80;83.60
4985;DHT22;2509;49.902;8.600;2022-08-21T10:14:52;28.00;83.60
4985;DHT22;2509;49.902;8.600;2022-08-21T10:18:44;28.00;83.80
4985;DHT22;2509;49.902;8.600;2022-08-21T10:22:00;28.10;81.30
4985;DHT22;2509;49.902;8.600;2022-08-21T10:25:22;28.10;81.80
4985;DHT22;2509;49.902;8.600;2022-08-21T10:29:07;28.30;81.30
4985;DHT22;2509;49.902;8.600;2022-08-21T10:32:42;28.40;80.40
4985;DHT22;2509;49.902;8.600;2022-08-21T10:36:11;28.50;79.90
4985;DHT22;2509;49.902;8.600;2022-08-21T10:39:39;28.60;79.70
4985;DHT22;2509;49.902;8.600;2022-08-21T10:43:15;28.80;78.10
4985;DHT22;2509;49.902;8.600;2022-08-21T10:47:07;28.90;80.80
4985;DHT22;2509;49.902;8.600;2022-08-21T10:50:58;29.10;79.50
4985;DHT22;2509;49.902;8.600;2022-08-21T10:54:29;29.20;80.10
4985;DHT22;2509;49.902;8.600;2022-08-21T10:58:08;29.10;79.20
4985;DHT22;2509;49.902;8.600;2022-08-21T11:01:13;28.80;80.30
4985;DHT22;2509;49.902;8.600;2022-08-21T11:04:20;28.60;79.30
4985;DHT22;2509;49.902;8.600;2022-08-21T11:07:32;28.80;78.90
4985;DHT22;2509;49.902;8.600;2022-08-21T11:10:42;29.20;78.40
4985;DHT22;2509;49.902;8.600;2022-08-21T11:13:47;29.30;77.80
4985;DHT22;2509;49.902;8.600;2022-08-21T11:16:57;29.40;76.60
4985;DHT22;2509;49.902;8.600;2022-08-21T11:28:26;30.10;76.30
4985;DHT22;2509;49.902;8.600;2022-08-21T11:31:38;30.10;75.50
4985;DHT22;2509;49.902;8.600;2022-08-21T11:34:54;30.20;75.90
4985;DHT22;2509;49.902;8.600;2022-08-21T11:38:07;30.90;75.10
4985;DHT22;2509;49.902;8.600;2022-08-21T11:41:19;31.50;73.70
4985;DHT22;2509;49.902;8.600;2022-08-21T11:44:32;32.40;70.90
4985;DHT22;2509;49.902;8.600;2022-08-21T11:47:48;31.90;71.00
4985;DHT22;2509;49.902;8.600;2022-08-21T11:50:52;32.50;70.60
4985;DHT22;2509;49.902;8.600;2022-08-21T11:54:03;33.10;69.10
4985;DHT22;2509;49.902;8.600;2022-08-21T11:57:11;33.40;70.30
4985;DHT22;2509;49.902;8.600;2022-08-21T12:00:20;33.60;68.70
4985;DHT22;2509;49.902;8.600;2022-08-21T12:03:25;33.80;67.00
4985;DHT22;2509;49.902;8.600;2022-08-21T12:06:32;34.40;69.10
4985;DHT22;2509;49.902;8.600;2022-08-21T12:09:35;35.10;67.00
4985;DHT22;2509;49.902;8.600;2022-08-21T12:12:40;34.90;66.00
4985;DHT22;2509;49.902;8.600;2022-08-21T12:15:43;35.10;65.20
4985;DHT22;2509;49.902;8.600;2022-08-21T12:18:45;35.30;65.80
4985;DHT22;2509;49.902;8.600;2022-08-21T12:21:52;35.60;66.10
4985;DHT22;2509;49.902;8.600;2022-08-21T12:25:05;36.20;63.90
4985;DHT22;2509;49.902;8.600;2022-08-21T12:28:08;36.10;63.60
4985;DHT22;2509;49.902;8.600;2022-08-21T12:31:23;35.90;63.90
4985;DHT22;2509;49.902;8.600;2022-08-21T12:34:32;36.50;63.40
4985;DHT22;2509;49.902;8.600;2022-08-21T12:37:41;36.50;62.70
4985;DHT22;2509;49.902;8.600;2022-08-21T12:40:48;37.00;62.70
4985;DHT22;2509;49.902;8.600;2022-08-21T12:43:57;37.60;61.00
4985;DHT22;2509;49.902;8.600;2022-08-21T12:47:04;37.10;62.00
4985;DHT22;2509;49.902;8.600;2022-08-21T12:50:11;36.40;61.80
4985;DHT22;2509;49.902;8.600;2022-08-21T12:53:22;36.90;62.10
4985;DHT22;2509;49.902;8.600;2022-08-21T12:56:29;36.80;61.80
4985;DHT22;2509;49.902;8.600;2022-08-21T12:59:32;37.60;61.70
4985;DHT22;2509;49.902;8.600;2022-08-21T13:02:37;38.10;60.50
4985;DHT22;2509;49.902;8.600;2022-08-21T13:05:40;38.30;60.40
4985;DHT22;2509;49.902;8.600;2022-08-21T13:08:43;38.90;60.20
4985;DHT22;2509;49.902;8.600;2022-08-21T13:11:46;38.70;59.30
4985;DHT22;2509;49.902;8.600;2022-08-21T13:14:49;38.40;58.90
4985;DHT22;2509;49.902;8.600;2022-08-21T13:17:54;38.50;58.40
4985;DHT22;2509;49.902;8.600;2022-08-21T13:21:09;38.20;57.90
4985;DHT22;2509;49.902;8.600;2022-08-21T13:24:17;37.00;59.70
4985;DHT22;2509;49.902;8.600;2022-08-21T13:27:22;37.60;58.90
4985;DHT22;2509;49.902;8.600;2022-08-21T13:30:24;37.40;59.50
4985;DHT22;2509;49.902;8.600;2022-08-21T13:33:30;37.30;59.20
4985;DHT22;2509;49.902;8.600;2022-08-21T13:36:35;37.20;59.10
4985;DHT22;2509;49.902;8.600;2022-08-21T13:39:37;36.90;58.80
4985;DHT22;2509;49.902;8.600;2022-08-21T13:42:41;36.40;60.10
4985;DHT22;2509;49.902;8.600;2022-08-21T13:45:46;35.00;61.40
4985;DHT22;2509;49.902;8.600;2022-08-21T13:48:50;35.00;62.00
4985;DHT22;2509;49.902;8.600;2022-08-21T13:51:52;35.40;62.10
4985;DHT22;2509;49.902;8.600;2022-08-21T13:54:56;36.10;60.40
4985;DHT22;2509;49.902;8.600;2022-08-21T13:57:59;36.60;59.90
4985;DHT22;2509;49.902;8.600;2022-08-21T14:01:02;37.40;60.00
4985;DHT22;2509;49.902;8.600;2022-08-21T14:04:14;37.90;58.00
4985;DHT22;2509;49.902;8.600;2022-08-21T14:07:19;37.20;58.20
4985;DHT22;2509;49.902;8.600;2022-08-21T14:10:23;37.30;58.50
4985;DHT22;2509;49.902;8.600;2022-08-21T14:13:37;38.10;58.60
4985;DHT22;2509;49.902;8.600;2022-08-21T14:16:44;38.20;58.10
4985;DHT22;2509;49.902;8.600;2022-08-21T14:19:47;38.20;57.80
4985;DHT22;2509;49.902;8.600;2022-08-21T14:22:49;38.50;56.60
4985;DHT22;2509;49.902;8.600;2022-08-21T14:25:52;38.80;56.70
4985;DHT22;2509;49.902;8.600;2022-08-21T14:28:59;38.80;56.20
4985;DHT22;2509;49.902;8.600;2022-08-21T14:32:09;38.70;55.60
4985;DHT22;2509;49.902;8.600;2022-08-21T14:35:13;38.60;56.10
4985;DHT22;2509;49.902;8.600;2022-08-21T14:38:19;38.70;57.00
4985;DHT22;2509;49.902;8.600;2022-08-21T14:41:23;39.20;57.10
4985;DHT22;2509;49.902;8.600;2022-08-21T14:44:26;39.80;56.50
4985;DHT22;2509;49.902;8.600;2022-08-21T14:47:28;39.60;55.60
4985;DHT22;2509;49.902;8.600;2022-08-21T14:50:31;40.00;54.60
4985;DHT22;2509;49.902;8.600;2022-08-21T14:53:33;39.60;54.80
4985;DHT22;2509;49.902;8.600;2022-08-21T14:56:35;39.70;54.90
4985;DHT22;2509;49.902;8.600;2022-08-21T14:59:37;40.10;54.90
4985;DHT22;2509;49.902;8.600;2022-08-21T15:02:39;40.40;54.00
4985;DHT22;2509;49.902;8.600;2022-08-21T15:05:42;40.50;54.70
4985;DHT22;2509;49.902;8.600;2022-08-21T15:08:44;40.30;53.60
4985;DHT22;2509;49.902;8.600;2022-08-21T15:11:46;38.50;55.20
4985;DHT22;2509;49.902;8.600;2022-08-21T15:14:48;38.00;55.80
4985;DHT22;2509;49.902;8.600;2022-08-21T15:17:50;38.50;56.80
4985;DHT22;2509;49.902;8.600;2022-08-21T15:20:53;38.30;55.30
4985;DHT22;2509;49.902;8.600;2022-08-21T15:23:55;37.60;56.30
4985;DHT22;2509;49.902;8.600;2022-08-21T15:26:59;37.00;57.40
4985;DHT22;2509;49.902;8.600;2022-08-21T15:30:02;36.60;57.70
4985;DHT22;2509;49.902;8.600;2022-08-21T15:33:04;35.60;58.40
4985;DHT22;2509;49.902;8.600;2022-08-21T15:36:08;35.10;59.00
4985;DHT22;2509;49.902;8.600;2022-08-21T15:39:10;34.60;60.40
4985;DHT22;2509;49.902;8.600;2022-08-21T15:42:12;34.40;60.90
4985;DHT22;2509;49.902;8.600;2022-08-21T15:45:14;34.10;61.30
4985;DHT22;2509;49.902;8.600;2022-08-21T15:48:16;33.80;61.20
4985;DHT22;2509;49.902;8.600;2022-08-21T15:51:19;33.60;61.30
4985;DHT22;2509;49.902;8.600;2022-08-21T15:54:21;33.50;61.80
4985;DHT22;2509;49.902;8.600;2022-08-21T15:57:24;33.30;62.00
4985;DHT22;2509;49.902;8.600;2022-08-21T16:00:26;33.40;63.30
4985;DHT22;2509;49.902;8.600;2022-08-21T16:03:28;33.40;62.70
4985;DHT22;2509;49.902;8.600;2022-08-21T16:06:31;33.10;62.10
4985;DHT22;2509;49.902;8.600;2022-08-21T16:09:33;32.70;63.00
4985;DHT22;2509;49.902;8.600;2022-08-21T16:12:40;32.40;64.80
4985;DHT22;2509;49.902;8.600;2022-08-21T16:15:42;31.80;65.40
4985;DHT22;2509;49.902;8.600;2022-08-21T16:18:44;31.50;66.50
4985;DHT22;2509;49.902;8.600;2022-08-21T16:21:48;31.50;64.50
4985;DHT22;2509;49.902;8.600;2022-08-21T16:24:49;31.60;65.00
4985;DHT22;2509;49.902;8.600;2022-08-21T16:27:54;31.70;64.90
4985;DHT22;2509;49.902;8.600;2022-08-21T16:30:57;31.50;65.10
4985;DHT22;2509;49.902;8.600;2022-08-21T16:33:59;31.30;65.50
4985;DHT22;2509;49.902;8.600;2022-08-21T16:37:03;31.30;66.00
4985;DHT22;2509;49.902;8.600;2022-08-21T16:40:06;31.10;65.30
4985;DHT22;2509;49.902;8.600;2022-08-21T16:43:10;30.80;66.10
4985;DHT22;2509;49.902;8.600;2022-08-21T16:46:13;30.70;65.80
4985;DHT22;2509;49.902;8.600;2022-08-21T16:49:17;30.60;67.10
4985;DHT22;2509;49.902;8.600;2022-08-21T16:52:20;30.60;67.30
4985;DHT22;2509;49.902;8.600;2022-08-21T16:55:21;30.40;70.80
4985;DHT22;2509;49.902;8.600;2022-08-21T16:58:25;30.20;72.30
4985;DHT22;2509;49.902;8.600;2022-08-21T17:01:30;30.20;72.10
4985;DHT22;2509;49.902;8.600;2022-08-21T17:04:33;30.10;71.40
4985;DHT22;2509;49.902;8.600;2022-08-21T17:07:37;29.90;70.90
4985;DHT22;2509;49.902;8.600;2022-08-21T17:10:47;29.70;72.30
4985;DHT22;2509;49.902;8.600;2022-08-21T17:13:49;29.60;73.30
4985;DHT22;2509;49.902;8.600;2022-08-21T17:16:53;29.40;70.40
4985;DHT22;2509;49.902;8.600;2022-08-21T17:19:55;29.30;73.10
4985;DHT22;2509;49.902;8.600;2022-08-21T17:22:58;29.20;70.90
4985;DHT22;2509;49.902;8.600;2022-08-21T17:26:00;29.00;72.10
4985;DHT22;2509;49.902;8.600;2022-08-21T17:29:03;28.90;71.00
4985;DHT22;2509;49.902;8.600;2022-08-21T17:32:10;28.70;72.90
4985;DHT22;2509;49.902;8.600;2022-08-21T17:35:12;28.70;75.20
4985;DHT22;2509;49.902;8.600;2022-08-21T17:38:16;28.70;75.50
4985;DHT22;2509;49.902;8.600;2022-08-21T17:41:18;28.60;75.80
4985;DHT22;2509;49.902;8.600;2022-08-21T17:44:20;28.50;75.50
4985;DHT22;2509;49.902;8.600;2022-08-21T17:47:22;28.30;78.60
4985;DHT22;2509;49.902;8.600;2022-08-21T17:50:24;28.20;79.80
4985;DHT22;2509;49.902;8.600;2022-08-21T17:53:27;28.00;78.90
4985;DHT22;2509;49.902;8.600;2022-08-21T17:56:33;27.90;80.60
4985;DHT22;2509;49.902;8.600;2022-08-21T17:59:35;27.80;82.00
4985;DHT22;2509;49.902;8.600;2022-08-21T18:02:38;27.60;82.80
4985;DHT22;2509;49.902;8.600;2022-08-21T18:05:41;27.50;84.70
4985;DHT22;2509;49.902;8.600;2022-08-21T18:08:45;27.40;85.70
4985;DHT22;2509;49.902;8.600;2022-08-21T18:11:47;27.30;83.60
4985;DHT22;2509;49.902;8.600;2022-08-21T18:14:49;27.20;85.30
4985;DHT22;2509;49.902;8.600;2022-08-21T18:17:51;27.00;84.80
4985;DHT22;2509;49.902;8.600;2022-08-21T18:20:53;26.90;86.30
4985;DHT22;2509;49.902;8.600;2022-08-21T18:23:57;26.80;86.80
4985;DHT22;2509;49.902;8.600;2022-08-21T18:26:59;26.60;86.50
4985;DHT22;2509;49.902;8.600;2022-08-21T18:30:01;26.50;88.40
4985;DHT22;2509;49.902;8.600;2022-08-21T18:33:03;26.30;89.40
4985;DHT22;2509;49.902;8.600;2022-08-21T18:36:05;26.20;90.10
4985;DHT22;2509;49.902;8.600;2022-08-21T18:39:09;26.10;89.80
4985;DHT22;2509;49.902;8.600;2022-08-21T18:42:12;26.00;90.60
4985;DHT22;2509;49.902;8.600;2022-08-21T18:45:17;25.90;92.70
4985;DHT22;2509;49.902;8.600;2022-08-21T18:48:19;25.70;93.30
4985;DHT22;2509;49.902;8.600;2022-08-21T18:51:22;25.60;93.40
4985;DHT22;2509;49.902;8.600;2022-08-21T18:54:25;25.50;92.70
4985;DHT22;2509;49.902;8.600;2022-08-21T18:57:28;25.50;91.40
4985;DHT22;2509;49.902;8.600;2022-08-21T19:00:35;25.40;90.70
4985;DHT22;2509;49.902;8.600;2022-08-21T19:03:38;25.30;88.80
4985;DHT22;2509;49.902;8.600;2022-08-21T19:06:40;25.30;90.00
4985;DHT22;2509;49.902;8.600;2022-08-21T19:09:43;25.20;90.50
4985;DHT22;2509;49.902;8.600;2022-08-21T19:12:46;25.10;91.20
4985;DHT22;2509;49.902;8.600;2022-08-21T19:15:49;25.00;90.90
4985;DHT22;2509;49.902;8.600;2022-08-21T19:18:52;25.00;89.70
4985;DHT22;2509;49.902;8.600;2022-08-21T19:21:54;24.90;90.80
4985;DHT22;2509;49.902;8.600;2022-08-21T19:24:57;24.80;89.00
4985;DHT22;2509;49.902;8.600;2022-08-21T19:28:00;24.80;91.00
4985;DHT22;2509;49.902;8.600;2022-08-21T19:31:08;24.50;89.50
4985;DHT22;2509;49.902;8.600;2022-08-21T19:34:13;24.30;90.20
4985;DHT22;2509;49.902;8.600;2022-08-21T19:37:16;24.30;91.00
4985;DHT22;2509;49.902;8.600;2022-08-21T19:40:21;24.30;89.70
4985;DHT22;2509;49.902;8.600;2022-08-21T19:43:23;24.20;90.50
4985;DHT22;2509;49.902;8.600;2022-08-21T19:46:26;24.20;90.00
4985;DHT22;2509;49.902;8.600;2022-08-21T19:49:31;24.20;88.60
4985;DHT22;2509;49.902;8.600;2022-08-21T19:52:34;24.10;89.80
4985;DHT22;2509;49.902;8.600;2022-08-21T19:55:41;24.10;91.20
4985;DHT22;2509;49.902;8.600;2022-08-21T19:58:43;24.10;91.00
4985;DHT22;2509;49.902;8.600;2022-08-21T20:01:46;24.10;91.60
4985;DHT22;2509;49.902;8.600;2022-08-21T20:04:48;24.00;91.30
4985;DHT22;2509;49.902;8.600;2022-08-21T20:07:50;23.90;91.00
4985;DHT22;2509;49.902;8.600;2022-08-21T20:10:54;23.80;90.90
4985;DHT22;2509;49.902;8.600;2022-08-21T20:13:57;23.70;89.90
4985;DHT22;2509;49.902;8.600;2022-08-21T20:17:03;23.70;90.40